Time;durP1;ratioP1;P1;durP2;ratioP2;P2;SDS_P1;SDS_P2;PMS_P1;PMS_P2;Temp;Humidity;BMP_temperature;BMP_pressure;BME280_temperature;BME280_humidity;BME280_pressure;Samples;Min_cycle;Max_cycle;Signal;HPM_P1;HPM_P2
2021/06/14 00:00:41;;;;;;;0.10;0.10;;;;;;;10.82;76.16;101884.63;5058841;28;20052;-84
2021/06/14 00:03:09;;;;;;;0.20;0.20;;;;;;;10.88;75.39;101872.72;5050981;28;20049;-83
2021/06/14 00:05:43;;;;;;;0.10;0.10;;;;;;;10.72;75.99;101860.78;5046242;28;20053;-84
2021/06/14 00:08:41;;;;;;;0.20;0.20;;;;;;;10.94;77.56;101897.28;5053605;28;20047;-83
2021/06/14 00:11:14;;;;;;;0.30;0.13;;;;;;;10.97;75.88;101902.25;5067103;28;20489;-83
2021/06/14 00:13:44;;;;;;;0.10;0.10;;;;;;;10.65;76.20;101846.56;5042418;28;20049;-84
2021/06/14 00:16:17;;;;;;;0.10;0.10;;;;;;;10.48;76.49;101838.44;5057555;28;20045;-83
2021/06/14 00:18:50;;;;;;;0.10;0.10;;;;;;;10.65;76.15;101862.88;5034432;28;20046;-83
2021/06/14 00:21:20;;;;;;;0.13;0.13;;;;;;;10.61;76.63;101863.66;5052410;28;20048;-84
2021/06/14 00:24:10;;;;;;;0.10;0.10;;;;;;;10.77;77.32;101886.44;5049815;28;20053;-83
2021/06/14 00:26:40;;;;;;;0.20;0.20;;;;;;;10.35;77.29;101836.88;5044116;28;20056;-83
2021/06/14 00:29:09;;;;;;;0.20;0.20;;;;;;;10.49;76.45;101842.78;5049932;28;20057;-84
2021/06/14 00:31:37;;;;;;;0.10;0.10;;;;;;;10.66;77.64;101883.59;5051820;28;20048;-84
2021/06/14 00:34:06;;;;;;;0.10;0.10;;;;;;;10.32;77.91;101836.53;5038111;28;20437;-84
2021/06/14 00:36:51;;;;;;;0.13;0.13;;;;;;;10.18;77.75;101817.00;5048346;28;20049;-83
2021/06/14 00:39:23;;;;;;;0.10;0.10;;;;;;;10.28;78.09;101832.66;5071599;28;20614;-82
2021/06/14 00:41:57;;;;;;;0.20;0.20;;;;;;;10.27;78.86;101841.88;5060577;28;20389;-82
2021/06/14 00:44:30;;;;;;;0.10;0.10;;;;;;;9.79;79.51;101817.78;5056025;28;20053;-84
2021/06/14 00:47:00;;;;;;;0.43;0.30;;;;;;;10.24;79.28;101867.69;5047573;28;20682;-83
2021/06/14 00:49:32;;;;;;;0.20;0.20;;;;;;;9.69;80.04;101823.84;5047874;28;20049;-83
2021/06/14 00:52:02;;;;;;;0.20;0.20;;;;;;;9.51;81.08;101811.31;5058108;28;20056;-83
2021/06/14 00:54:35;;;;;;;0.20;0.20;;;;;;;9.85;79.75;101837.72;5059011;28;20064;-83
2021/06/14 00:57:14;;;;;;;0.20;0.20;;;;;;;9.92;79.65;101838.38;5040674;28;20041;-83
2021/06/14 00:59:47;;;;;;;0.20;0.20;;;;;;;9.66;80.16;101847.97;5041261;28;20045;-83
2021/06/14 01:02:21;;;;;;;0.10;0.10;;;;;;;9.39;79.78;101780.66;5042072;28;20048;-82
2021/06/14 01:04:57;;;;;;;0.20;0.20;;;;;;;9.47;80.58;101834.63;5066238;28;20056;-83
2021/06/14 01:07:58;;;;;;;0.20;0.20;;;;;;;9.76;80.36;101872.59;5042926;28;20500;-84
2021/06/14 01:10:34;;;;;;;0.10;0.10;;;;;;;9.49;81.57;101832.47;5055094;28;20049;-83
2021/06/14 01:13:17;;;;;;;0.20;0.20;;;;;;;9.78;80.95;101872.38;5051160;28;20046;-84
2021/06/14 01:16:20;;;;;;;0.13;0.13;;;;;;;9.69;81.87;101872.78;5048795;28;20508;-83
2021/06/14 01:19:00;;;;;;;0.10;0.10;;;;;;;9.19;81.81;101811.81;5050634;28;20045;-83
2021/06/14 01:26:10;;;;;;;0.17;0.17;;;;;;;9.75;81.45;101864.69;5059846;28;20056;-83
2021/06/14 01:28:47;;;;;;;0.20;0.20;;;;;;;9.47;81.58;101829.19;5050986;28;20052;-84
2021/06/14 01:31:26;;;;;;;0.10;0.10;;;;;;;9.68;82.15;101862.13;5039295;28;20040;-83
2021/06/14 01:33:56;;;;;;;0.17;0.17;;;;;;;9.21;81.85;101799.88;5063843;28;20050;-84
2021/06/14 01:36:27;;;;;;;0.20;0.20;;;;;;;9.44;80.21;101817.97;5053939;28;20045;-82
2021/06/14 01:39:26;;;;;;;0.20;0.20;;;;;;;9.39;82.43;101847.75;5061939;28;20053;-83
2021/06/14 01:42:22;;;;;;;0.20;0.20;;;;;;;9.48;81.14;101854.44;5051644;28;20744;-82
2021/06/14 01:45:03;;;;;;;0.20;0.20;;;;;;;9.47;80.28;101815.59;5045382;28;20056;-82
2021/06/14 01:47:37;;;;;;;0.13;0.13;;;;;;;9.48;80.85;101830.81;5043505;28;20052;-83
2021/06/14 01:50:37;;;;;;;0.20;0.20;;;;;;;9.42;82.41;101839.94;5059705;28;20048;-83
2021/06/14 01:56:43;;;;;;;0.20;0.20;;;;;;;9.56;79.83;101820.63;5047103;28;20056;-82
2021/06/14 01:59:38;;;;;;;0.10;0.10;;;;;;;9.54;80.21;101812.69;5059543;28;20049;-83
2021/06/14 02:03:04;;;;;;;0.13;0.13;;;;;;;9.55;80.75;101835.28;5059180;28;20045;-83
2021/06/14 02:05:47;;;;;;;0.20;0.20;;;;;;;9.41;80.10;101789.38;5057665;28;20048;-83
2021/06/14 02:08:20;;;;;;;0.10;0.10;;;;;;;9.29;80.83;101784.00;5053685;28;20046;-83
2021/06/14 02:10:57;;;;;;;0.20;0.20;;;;;;;9.50;81.16;101820.53;5058145;28;20394;-83
2021/06/14 02:13:33;;;;;;;0.20;0.20;;;;;;;9.62;80.99;101816.91;5038140;28;20640;-84
2021/06/14 02:24:17;;;;;;;0.15;0.15;;;;;;;9.23;81.29;101757.81;5036068;28;20053;-83
2021/06/14 02:26:57;;;;;;;0.20;0.20;;;;;;;9.29;81.10;101754.13;5047368;28;20401;-84
2021/06/14 02:29:31;;;;;;;0.10;0.10;;;;;;;9.05;82.06;101747.19;5049735;28;20057;-83
2021/06/14 02:32:59;;;;;;;0.10;0.10;;;;;;;9.47;82.20;101799.28;5049099;28;20048;-83
2021/06/14 02:35:33;;;;;;;0.10;0.10;;;;;;;9.28;81.23;101763.38;5031465;28;20053;-83
2021/06/14 02:38:36;;;;;;;0.10;0.10;;;;;;;9.62;79.73;101796.00;5050851;28;20041;-82
2021/06/14 02:41:21;;;;;;;0.20;0.20;;;;;;;9.33;80.08;101759.91;5064484;28;20083;-83
2021/06/14 02:43:55;;;;;;;0.10;0.10;;;;;;;9.25;81.27;101742.09;5047996;28;20052;-83
2021/06/14 02:46:26;;;;;;;0.10;0.10;;;;;;;8.88;82.02;101728.13;5052178;28;20060;-83
2021/06/14 02:49:00;;;;;;;0.13;0.13;;;;;;;8.92;82.74;101745.56;5057427;28;20405;-83
2021/06/14 02:51:31;;;;;;;0.20;0.20;;;;;;;8.93;82.84;101750.75;5051360;28;20396;-84
2021/06/14 02:54:08;;;;;;;0.10;0.10;;;;;;;9.35;81.70;101791.19;5060476;28;20056;-84
2021/06/14 02:56:55;;;;;;;0.10;0.10;;;;;;;9.13;81.78;101749.50;5055852;28;20049;-83
2021/06/14 02:59:26;;;;;;;0.20;0.20;;;;;;;9.44;81.04;101788.88;5064133;28;20052;-83
2021/06/14 03:01:56;;;;;;;0.10;0.10;;;;;;;9.49;80.88;101786.28;5065917;28;20071;-83
2021/06/14 03:04:27;;;;;;;0.20;0.20;;;;;;;9.11;81.23;101746.19;5038349;28;20050;-83
2021/06/14 03:06:56;;;;;;;0.20;0.20;;;;;;;9.13;80.60;101742.19;5051095;28;20056;-83
2021/06/14 03:13:08;;;;;;;0.20;0.20;;;;;;;9.47;81.60;101787.59;5044483;28;20076;-82
2021/06/14 03:15:37;;;;;;;0.20;0.20;;;;;;;9.14;81.06;101743.84;5049014;28;20060;-83
2021/06/14 03:18:06;;;;;;;0.10;0.10;;;;;;;9.42;81.31;101790.19;5048641;28;20630;-82
2021/06/14 03:20:36;;;;;;;0.20;0.20;;;;;;;9.42;81.23;101793.75;5060953;28;20052;-83
2021/06/14 03:23:04;;;;;;;0.20;0.20;;;;;;;9.32;81.59;101760.97;5049887;28;20040;-83
2021/06/14 03:25:39;;;;;;;0.20;0.20;;;;;;;9.50;81.84;101795.25;5054583;28;20049;-83
2021/06/14 03:40:18;;;;;;;0.20;0.20;;;;;;;9.28;82.52;101747.06;5060406;28;20056;-82
2021/06/14 03:43:06;;;;;;;0.10;0.10;;;;;;;9.34;82.12;101761.56;5066661;28;20499;-82
2021/06/14 03:46:05;;;;;;;0.10;0.10;;;;;;;9.62;82.23;101787.84;5052137;28;20038;-83
2021/06/14 03:48:39;;;;;;;0.20;0.20;;;;;;;9.60;81.78;101783.72;5053990;28;20048;-83
2021/06/14 03:51:10;;;;;;;0.17;0.17;;;;;;;9.43;83.32;101768.25;5045616;28;20056;-83
2021/06/14 03:54:09;;;;;;;0.10;0.10;;;;;;;9.59;81.81;101777.47;5060139;28;20045;-83
2021/06/14 03:57:07;;;;;;;0.20;0.20;;;;;;;9.66;82.16;101794.44;5040731;28;20049;-83
2021/06/14 03:59:45;;;;;;;0.20;0.20;;;;;;;9.42;81.76;101739.41;5049228;28;20048;-83
2021/06/14 04:06:13;;;;;;;0.20;0.20;;;;;;;9.48;81.97;101724.84;5057001;28;19916;-84
2021/06/14 04:09:14;;;;;;;0.20;0.20;;;;;;;9.87;82.25;101770.28;5049870;28;20053;-83
2021/06/14 04:12:29;;;;;;;0.10;0.10;;;;;;;9.91;82.49;101776.88;5034214;28;20049;-83
2021/06/14 04:14:58;;;;;;;0.13;0.13;;;;;;;9.57;82.47;101702.69;5042647;28;20049;-83
2021/06/14 04:17:32;;;;;;;0.20;0.20;;;;;;;9.96;80.97;101735.38;5061977;28;20045;-82
2021/06/14 04:24:26;;;;;;;0.32;0.20;;;;;;;9.84;80.84;101714.50;5050572;28;20051;-85
2021/06/14 04:26:56;;;;;;;0.20;0.20;;;;;;;10.06;80.58;101734.69;5052374;28;20041;-84
2021/06/14 04:29:24;;;;;;;0.20;0.20;;;;;;;10.09;80.51;101737.72;5051428;28;20768;-85
2021/06/14 04:32:59;;;;;;;0.20;0.20;;;;;;;10.38;80.94;101762.06;5039727;28;20397;-84
2021/06/14 04:40:01;;;;;;;0.10;0.10;;;;;;;10.11;80.11;101710.25;5047781;28;20041;-86
2021/06/14 04:46:59;;;;;;;0.10;0.10;;;;;;;10.59;79.63;101744.09;5049243;28;20500;-83
2021/06/14 04:53:53;;;;;;;;;;;;;;;10.96;78.88;101789.72;5047293;28;20048;-86
2021/06/14 04:56:23;;;;;;;0.20;0.20;;;;;;;10.60;78.72;101737.59;5043316;28;19921;-84
2021/06/14 04:58:56;;;;;;;0.20;0.20;;;;;;;10.69;79.08;101748.88;5054683;28;20049;-85
2021/06/14 05:01:24;;;;;;;0.20;0.20;;;;;;;10.87;78.86;101769.50;5040635;28;20520;-84
2021/06/14 05:03:58;;;;;;;0.20;0.20;;;;;;;11.21;78.07;101805.56;5044974;28;20398;-85
2021/06/14 05:06:31;;;;;;;0.20;0.20;;;;;;;11.29;76.81;101768.03;5044624;28;20041;-84
2021/06/14 05:09:00;;;;;;;0.10;0.10;;;;;;;11.76;75.13;101761.06;5048332;28;20049;-85
2021/06/14 05:11:29;;;;;;;0.52;0.20;;;;;;;14.40;67.27;101772.34;5041606;28;20498;-85
2021/06/14 05:13:58;;;;;;;0.20;0.20;;;;;;;16.51;61.33;101751.56;5041040;28;20045;-85
2021/06/14 05:16:26;;;;;;;0.20;0.20;;;;;;;18.37;56.62;101785.25;5040268;28;20518;-84
2021/06/14 05:19:03;;;;;;;0.20;0.20;;;;;;;18.91;53.95;101757.94;5046180;28;20397;-85
2021/06/14 05:25:44;;;;;;;0.20;0.20;;;;;;;20.02;50.22;101740.06;5053114;28;20047;-85
2021/06/14 05:29:12;;;;;;;0.20;0.20;;;;;;;21.04;48.00;101761.13;5046660;28;20057;-86
2021/06/14 05:36:11;;;;;;;0.15;0.15;;;;;;;22.50;44.51;101755.13;5044461;28;20493;-86
2021/06/14 05:43:09;;;;;;;0.10;0.10;;;;;;;23.05;43.24;101742.97;5039644;28;20060;-85
2021/06/14 05:50:09;;;;;;;0.10;0.10;;;;;;;20.35;50.11;101743.25;5041781;28;20060;-85
2021/06/14 05:52:39;;;;;;;0.10;0.10;;;;;;;19.54;53.14;101723.06;5038852;28;20045;-86
2021/06/14 05:55:17;;;;;;;0.10;0.10;;;;;;;19.21;54.62;101725.28;5038690;28;20049;-85
2021/06/14 05:57:52;;;;;;;0.10;0.10;;;;;;;19.33;51.31;101720.00;5037787;28;20050;-85
2021/06/14 06:00:47;;;;;;;0.10;0.10;;;;;;;19.13;54.16;101742.56;5054175;28;20048;-85
2021/06/14 06:03:53;;;;;;;0.10;0.10;;;;;;;18.38;52.94;101742.81;5036070;28;20233;-85
2021/06/14 06:06:22;;;;;;;;;;;;;;;17.79;54.60;101737.81;5048468;28;20292;-84
2021/06/14 06:08:57;;;;;;;0.10;0.10;;;;;;;17.17;57.04;101680.28;5039736;28;20374;-90
2021/06/14 06:15:50;;;;;;;0.10;0.10;;;;;;;16.99;62.31;101723.19;5066947;28;20043;-85
2021/06/14 06:18:38;;;;;;;0.10;0.10;;;;;;;17.03;57.43;101739.88;5059319;28;20037;-85
2021/06/14 06:21:13;;;;;;;0.13;0.13;;;;;;;16.47;58.26;101676.31;5057884;28;20473;-85
2021/06/14 06:23:47;;;;;;;0.10;0.10;;;;;;;16.90;62.38;101731.25;5069311;28;20052;-85
2021/06/14 06:26:22;;;;;;;0.10;0.10;;;;;;;16.61;61.30;101709.38;5055190;28;20056;-85
2021/06/14 06:28:55;;;;;;;0.10;0.10;;;;;;;16.84;61.61;101732.44;5046905;28;20056;-84
2021/06/14 06:31:34;;;;;;;0.10;0.10;;;;;;;16.64;62.21;101711.53;5058147;28;20045;-84
2021/06/14 06:34:07;;;;;;;0.10;0.10;;;;;;;16.52;60.30;101702.91;5046862;28;20041;-84
2021/06/14 06:36:43;;;;;;;0.10;0.10;;;;;;;16.82;60.47;101734.66;5052851;28;20033;-86
2021/06/14 06:39:22;;;;;;;0.20;0.20;;;;;;;16.49;62.11;101702.38;5057218;28;20051;-86
2021/06/14 06:42:00;;;;;;;0.10;0.10;;;;;;;16.68;62.76;101709.81;5056069;28;20059;-85
2021/06/14 06:45:30;;;;;;;0.10;0.10;;;;;;;16.91;62.30;101732.91;5058493;28;20045;-83
2021/06/14 06:47:58;;;;;;;0.10;0.10;;;;;;;16.74;60.25;101732.59;5055065;28;20060;-85
2021/06/14 06:50:53;;;;;;;0.10;0.10;;;;;;;16.74;59.83;101727.09;5059558;28;20040;-84
2021/06/14 06:53:23;;;;;;;0.15;0.15;;;;;;;16.44;62.26;101685.97;5055271;28;20058;-88
2021/06/14 06:55:56;;;;;;;0.10;0.10;;;;;;;16.65;63.18;101713.16;5054854;28;21285;-86
2021/06/14 06:58:29;;;;;;;0.10;0.10;;;;;;;16.79;62.42;101705.84;5056660;28;20053;-84
2021/06/14 07:00:58;;;;;;;0.15;0.15;;;;;;;16.89;62.75;101693.06;5052490;28;20812;-84
2021/06/14 07:03:27;;;;;;;0.20;0.20;;;;;;;16.79;61.04;101675.59;5058685;28;20053;-87
2021/06/14 07:05:57;;;;;;;0.10;0.10;;;;;;;16.99;61.98;101682.75;5054287;28;20060;-86
2021/06/14 07:08:37;;;;;;;0.10;0.10;;;;;;;17.00;60.75;101697.31;5055023;28;20049;-85
2021/06/14 07:11:35;;;;;;;0.20;0.20;;;;;;;17.34;61.86;101693.47;5054698;28;20052;-86
2021/06/14 07:14:28;;;;;;;0.10;0.10;;;;;;;17.42;62.95;101695.53;5056661;28;20527;-86
2021/06/14 07:17:23;;;;;;;0.15;0.15;;;;;;;17.50;61.41;101688.53;5058689;28;20052;-85
2021/06/14 07:20:05;;;;;;;0.17;0.17;;;;;;;17.53;61.16;101687.09;5055552;28;20417;-87
2021/06/14 07:26:39;;;;;;;0.10;0.10;;;;;;;17.33;60.65;101628.53;5056931;28;20044;-85
2021/06/14 07:29:07;;;;;;;0.20;0.20;;;;;;;17.57;61.62;101642.16;5058945;28;20066;-86
2021/06/14 07:31:38;;;;;;;0.20;0.20;;;;;;;17.54;57.75;101633.69;5052349;28;20083;-88
2021/06/14 07:34:08;;;;;;;0.20;0.20;;;;;;;17.88;59.67;101660.00;5053646;28;20041;-86
2021/06/14 07:36:41;;;;;;;0.20;0.20;;;;;;;17.55;59.93;101600.34;5054025;28;20049;-86
2021/06/14 07:39:13;;;;;;;0.10;0.10;;;;;;;18.08;57.98;101653.31;5052134;28;20469;-88
2021/06/14 07:41:44;;;;;;;0.10;0.10;;;;;;;17.89;60.00;101607.38;5055364;28;20060;-87
2021/06/14 07:45:05;;;;;;;0.20;0.20;;;;;;;18.22;58.96;101656.88;5056859;28;20049;-87
2021/06/14 07:48:06;;;;;;;0.10;0.10;;;;;;;18.24;59.29;101648.28;5053531;28;20056;-87
2021/06/14 07:50:41;;;;;;;0.20;0.20;;;;;;;18.13;59.18;101618.22;5055622;28;20056;-87
2021/06/14 07:53:38;;;;;;;0.10;0.10;;;;;;;18.47;60.52;101652.72;5054721;28;20067;-88
2021/06/14 07:56:08;;;;;;;0.10;0.10;;;;;;;18.47;57.76;101607.84;5052751;28;20056;-86
2021/06/14 07:59:28;;;;;;;0.10;0.10;;;;;;;18.44;56.50;101641.53;5054841;28;21152;-85
2021/06/14 08:01:59;;;;;;;0.10;0.10;;;;;;;18.33;58.10;101589.38;5051851;28;20079;-86
2021/06/14 08:04:31;;;;;;;0.10;0.10;;;;;;;18.69;56.55;101632.66;5055039;28;20052;-86
2021/06/14 08:07:05;;;;;;;0.13;0.13;;;;;;;18.44;57.37;101587.22;5057443;28;20060;-87
2021/06/14 08:09:37;;;;;;;0.10;0.10;;;;;;;18.66;57.86;101608.47;5055047;28;20056;-86
2021/06/14 08:12:10;;;;;;;0.20;0.20;;;;;;;18.51;54.05;101575.75;5058439;28;20045;-86
2021/06/14 08:14:39;;;;;;;0.10;0.10;;;;;;;18.72;56.11;101595.38;5042904;28;20163;-86
2021/06/14 08:17:09;;;;;;;0.13;0.13;;;;;;;18.86;57.11;101620.97;5047497;28;20293;-85
2021/06/14 08:20:11;;;;;;;0.10;0.10;;;;;;;19.12;57.45;101625.84;5047657;28;20079;-87
2021/06/14 08:25:03;;;;;;;0.10;0.10;;;;;;;19.24;55.22;101616.19;5048313;28;20063;-85
2021/06/14 08:25:40;;;;;;;0.10;0.10;;;;;;;19.21;54.27;101603.84;5045211;28;20052;-87
2021/06/14 08:28:38;;;;;;;0.15;0.15;;;;;;;19.39;55.85;101602.00;5047843;28;20520;-85
2021/06/14 08:32:05;;;;;;;0.10;0.10;;;;;;;19.30;56.01;101606.66;5050545;28;20048;-85
2021/06/14 08:34:33;;;;;;;0.10;0.10;;;;;;;19.20;54.58;101591.19;5050497;28;20064;-88
2021/06/14 08:37:09;;;;;;;0.10;0.10;;;;;;;19.27;55.97;101558.41;5049328;28;20052;-88
2021/06/14 08:39:39;;;;;;;0.10;0.10;;;;;;;19.40;53.88;101547.59;5047227;28;20060;-86
2021/06/14 08:42:13;;;;;;;0.10;0.10;;;;;;;19.34;55.74;101527.59;5046114;28;20053;-86
2021/06/14 08:44:59;;;;;;;0.20;0.20;;;;;;;19.64;54.84;101570.09;5049513;28;20044;-84
2021/06/14 08:47:30;;;;;;;0.10;0.10;;;;;;;19.66;53.32;101565.06;5064397;28;20068;-85
2021/06/14 08:50:05;;;;;;;0.10;0.10;;;;;;;19.67;55.13;101541.84;5047094;28;20059;-84
2021/06/14 08:53:01;;;;;;;0.20;0.20;;;;;;;19.99;56.01;101569.41;5051228;28;20056;-86
2021/06/14 08:55:34;;;;;;;0.20;0.20;;;;;;;20.16;54.73;101552.03;5058071;28;20061;-85
2021/06/14 08:58:07;;;;;;;0.10;0.10;;;;;;;20.17;51.88;101534.31;5052275;28;20302;-85
2021/06/14 09:00:45;;;;;;;0.10;0.10;;;;;;;20.18;53.67;101527.66;5051654;28;20070;-86
2021/06/14 09:03:22;;;;;;;0.10;0.10;;;;;;;20.28;53.78;101501.63;5047367;28;20389;-87
2021/06/14 09:09:59;;;;;;;0.22;0.10;;;;;;;20.51;55.16;101516.09;5046636;28;19920;-85
2021/06/14 09:12:39;;;;;;;0.10;0.10;;;;;;;20.53;54.44;101509.06;5049429;28;20057;-87
2021/06/14 09:15:27;;;;;;;0.10;0.10;;;;;;;20.62;54.04;101492.50;5046358;28;20055;-89
2021/06/14 09:18:26;;;;;;;0.10;0.10;;;;;;;20.94;52.55;101517.97;5047335;28;20722;-86
2021/06/14 09:20:59;;;;;;;0.10;0.10;;;;;;;20.97;53.60;101511.78;5046880;28;20044;-85
2021/06/14 09:23:58;;;;;;;0.10;0.10;;;;;;;21.01;52.87;101501.66;5051376;28;20053;-85
2021/06/14 09:26:34;;;;;;;0.10;0.10;;;;;;;21.22;52.04;101498.16;5046106;28;20052;-86
2021/06/14 09:32:54;;;;;;;0.10;0.10;;;;;;;21.16;50.84;101483.72;5044572;28;20049;-86
2021/06/14 09:36:13;;;;;;;0.10;0.10;;;;;;;21.21;50.35;101485.47;5046416;28;20049;-88
2021/06/14 09:38:48;;;;;;;0.10;0.10;;;;;;;21.34;50.15;101494.72;5046265;28;20075;-86
2021/06/14 09:41:26;;;;;;;0.10;0.10;;;;;;;21.16;50.59;101453.25;5049918;28;20496;-84
2021/06/14 09:44:01;;;;;;;0.10;0.10;;;;;;;21.30;49.62;101466.88;5044812;28;20057;-84
2021/06/14 09:46:41;;;;;;;0.10;0.10;;;;;;;21.48;49.53;101473.13;5043473;28;20056;-85
2021/06/14 09:49:18;;;;;;;0.10;0.10;;;;;;;21.34;51.94;101445.69;5046782;28;20044;-86
2021/06/14 09:51:59;;;;;;;0.10;0.10;;;;;;;21.66;50.55;101484.13;5046162;28;20056;-87
2021/06/14 09:55:30;;;;;;;0.10;0.10;;;;;;;21.92;49.92;101473.66;5048748;28;20068;-86
2021/06/14 09:58:11;;;;;;;0.10;0.10;;;;;;;21.73;48.26;101460.25;5043007;28;20068;-85
2021/06/14 10:00:54;;;;;;;0.10;0.10;;;;;;;21.76;46.79;101466.28;5048858;28;20051;-85
2021/06/14 10:03:27;;;;;;;0.10;0.10;;;;;;;21.94;48.96;101469.75;5043332;28;20060;-87
2021/06/14 10:05:57;;;;;;;0.10;0.10;;;;;;;21.91;49.44;101466.47;5041675;28;20057;-84
2021/06/14 10:08:28;;;;;;;0.20;0.20;;;;;;;21.72;47.33;101472.50;5045110;28;20060;-85
2021/06/14 10:11:03;;;;;;;0.10;0.10;;;;;;;21.73;51.70;101470.53;5043171;28;20052;-86
2021/06/14 10:13:32;;;;;;;0.10;0.10;;;;;;;21.89;49.66;101466.03;5048581;28;20048;-87
2021/06/14 10:16:06;;;;;;;0.10;0.10;;;;;;;21.95;49.12;101466.63;5041160;28;20056;-86
2021/06/14 10:18:43;;;;;;;0.17;0.10;;;;;;;22.02;49.95;101432.81;5042537;28;20857;-85
2021/06/14 10:21:24;;;;;;;0.10;0.10;;;;;;;22.21;50.48;101455.31;5043277;28;20060;-86
2021/06/14 10:23:56;;;;;;;0.10;0.10;;;;;;;22.42;49.16;101455.28;5048611;28;20036;-84
2021/06/14 10:26:53;;;;;;;0.10;0.10;;;;;;;22.48;47.50;101446.75;5046864;28;20056;-85
2021/06/14 10:29:27;;;;;;;0.10;0.10;;;;;;;22.40;46.70;101440.97;5045483;28;20061;-88
2021/06/14 10:32:03;;;;;;;0.10;0.10;;;;;;;22.51;45.57;101448.84;5043907;28;20068;-89
2021/06/14 10:34:32;;;;;;;0.10;0.10;;;;;;;22.31;48.06;101420.00;5046574;28;20063;-87
2021/06/14 10:37:03;;;;;;;0.10;0.10;;;;;;;22.66;48.17;101450.16;5042485;28;20049;-86
2021/06/14 10:39:31;;;;;;;0.10;0.10;;;;;;;22.76;47.21;101441.38;5042860;28;20053;-87
2021/06/14 10:42:29;;;;;;;0.10;0.10;;;;;;;22.94;47.29;101441.97;5041939;28;20057;-88
2021/06/14 10:45:06;;;;;;;0.10;0.10;;;;;;;23.01;49.39;101421.97;5044581;28;20091;-88
2021/06/14 10:47:36;;;;;;;0.10;0.10;;;;;;;22.81;45.91;101415.38;5043948;28;20076;-87
2021/06/14 10:50:10;;;;;;;0.10;0.10;;;;;;;22.69;44.43;101402.28;5041638;28;20048;-86
2021/06/14 10:52:46;;;;;;;0.10;0.10;;;;;;;22.86;49.90;101407.63;5047277;28;20594;-88
2021/06/14 10:55:19;;;;;;;0.10;0.10;;;;;;;23.15;45.97;101436.34;5042488;28;20052;-86
2021/06/14 10:57:48;;;;;;;0.10;0.10;;;;;;;22.60;43.15;101405.19;5043690;28;20061;-86
2021/06/14 11:00:26;;;;;;;0.10;0.10;;;;;;;22.87;43.27;101386.22;5042693;28;20083;-86
2021/06/14 11:02:57;;;;;;;0.10;0.10;;;;;;;22.96;45.98;101394.44;5044133;28;20136;-86
2021/06/14 11:05:35;;;;;;;0.20;0.20;;;;;;;23.23;47.01;101407.66;5042816;28;20128;-87
2021/06/14 11:08:39;;;;;;;0.10;0.10;;;;;;;23.58;47.69;101423.78;5042492;28;20061;-86
2021/06/14 11:11:13;;;;;;;0.10;0.10;;;;;;;23.54;47.00;101408.16;5050818;28;20507;-88
2021/06/14 11:13:49;;;;;;;0.10;0.10;;;;;;;23.42;45.51;101382.03;5050852;28;20048;-87
2021/06/14 11:16:19;;;;;;;0.10;0.10;;;;;;;23.72;45.24;101394.81;5047058;28;20056;-86
2021/06/14 11:19:46;;;;;;;0.10;0.10;;;;;;;23.81;45.34;101400.19;5049292;28;20696;-85
2021/06/14 11:26:30;;;;;;;0.10;0.10;;;;;;;23.85;44.28;101387.22;5048445;28;20323;-87
2021/06/14 11:29:14;;;;;;;0.10;0.10;;;;;;;24.10;45.07;101404.66;5048876;28;20056;-86
2021/06/14 11:32:01;;;;;;;0.10;0.10;;;;;;;23.32;40.63;101392.81;5052494;28;20037;-86
2021/06/14 11:34:44;;;;;;;0.10;0.10;;;;;;;23.58;42.12;101384.88;5049366;28;20063;-87
2021/06/14 11:37:16;;;;;;;0.10;0.10;;;;;;;23.67;41.73;101367.25;5044340;28;20532;-87
2021/06/14 11:40:01;;;;;;;0.10;0.10;;;;;;;24.15;45.21;101371.00;5048288;28;20048;-84
2021/06/14 11:42:43;;;;;;;0.10;0.10;;;;;;;24.20;42.98;101367.16;5048216;28;20052;-85
2021/06/14 11:45:27;;;;;;;0.10;0.10;;;;;;;24.07;42.62;101339.44;5044556;28;20048;-86
2021/06/14 11:47:57;;;;;;;0.10;0.10;;;;;;;24.36;44.43;101367.16;5045157;28;20056;-89
2021/06/14 11:51:03;;;;;;;0.10;0.10;;;;;;;24.40;43.57;101360.56;5054428;28;20057;-85
2021/06/14 11:53:54;;;;;;;0.10;0.10;;;;;;;24.55;43.17;101349.78;5051854;28;20052;-86
2021/06/14 11:56:28;;;;;;;0.10;0.10;;;;;;;24.71;41.96;101353.38;5048456;28;20067;-86
2021/06/14 11:59:08;;;;;;;0.10;0.10;;;;;;;24.68;44.41;101337.41;5048878;28;20052;-89
2021/06/14 12:01:41;;;;;;;0.15;0.15;;;;;;;24.44;44.22;101332.81;5048520;28;20061;-87
2021/06/14 12:04:22;;;;;;;0.10;0.10;;;;;;;24.25;41.29;101294.56;5049162;28;20067;-86
2021/06/14 12:06:56;;;;;;;0.10;0.10;;;;;;;24.28;40.54;101343.94;5047671;28;20053;-86
2021/06/14 12:09:31;;;;;;;0.10;0.10;;;;;;;24.33;41.22;101326.16;5046816;28;20049;-86
2021/06/14 12:12:16;;;;;;;0.10;0.10;;;;;;;24.16;40.42;101305.88;5050033;28;20538;-87
2021/06/14 12:15:16;;;;;;;0.10;0.10;;;;;;;24.58;43.48;101344.31;5051983;28;20048;-85
2021/06/14 12:17:51;;;;;;;0.10;0.10;;;;;;;24.47;42.12;101322.94;5049667;28;20041;-85
2021/06/14 12:20:25;;;;;;;0.10;0.10;;;;;;;24.45;39.51;101342.78;5045581;28;20139;-87
2021/06/14 12:23:05;;;;;;;0.10;0.10;;;;;;;24.68;42.74;101331.84;5056865;28;20040;-85
2021/06/14 12:25:40;;;;;;;0.10;0.10;;;;;;;24.36;40.58;101305.97;5047235;28;21364;-88
2021/06/14 12:28:19;;;;;;;0.10;0.10;;;;;;;24.61;40.19;101303.84;5045303;28;20056;-88
2021/06/14 12:31:00;;;;;;;0.10;0.10;;;;;;;24.44;40.45;101300.25;5047546;28;20045;-93
2021/06/14 12:33:32;;;;;;;0.10;0.10;;;;;;;24.69;39.91;101327.91;5049574;28;20060;-87
2021/06/14 12:36:31;;;;;;;0.10;0.10;;;;;;;24.82;39.62;101336.94;5048199;28;20055;-86
2021/06/14 12:39:11;;;;;;;0.10;0.10;;;;;;;24.59;39.66;101323.63;5044037;28;20049;-87
2021/06/14 12:42:15;;;;;;;0.10;0.10;;;;;;;24.96;40.24;101333.69;5042606;28;20072;-87
2021/06/14 12:44:55;;;;;;;0.10;0.10;;;;;;;25.24;40.34;101332.69;5046175;28;20055;-86
2021/06/14 12:47:29;;;;;;;0.10;0.10;;;;;;;24.94;37.99;101299.81;5045728;28;20053;-88
2021/06/14 12:49:58;;;;;;;0.10;0.10;;;;;;;24.99;39.18;101276.47;5047619;28;20059;-86
2021/06/14 12:52:29;;;;;;;0.10;0.10;;;;;;;25.19;40.80;101296.75;5045871;28;20517;-85
2021/06/14 12:55:05;;;;;;;0.10;0.10;;;;;;;25.15;37.70;101307.84;5048787;28;20044;-85
2021/06/14 12:58:01;;;;;;;0.10;0.10;;;;;;;25.38;40.35;101307.97;5053015;28;20049;-85
2021/06/14 13:00:32;;;;;;;0.10;0.10;;;;;;;25.19;39.48;101280.06;5047237;28;20873;-88
2021/06/14 13:03:03;;;;;;;0.10;0.10;;;;;;;25.16;38.76;101278.81;5061135;28;20154;-89
2021/06/14 13:05:34;;;;;;;0.10;0.10;;;;;;;25.58;42.74;101300.41;5047559;28;20052;-86
2021/06/14 13:08:34;;;;;;;0.10;0.10;;;;;;;25.61;40.12;101304.44;5049315;28;20076;-85
2021/06/14 13:11:07;;;;;;;0.10;0.10;;;;;;;25.59;38.80;101281.69;5044366;28;20171;-85
2021/06/14 13:13:44;;;;;;;0.10;0.10;;;;;;;25.55;40.15;101278.03;5046080;28;20673;-85
2021/06/14 13:16:15;;;;;;;0.10;0.10;;;;;;;25.52;38.75;101289.91;5045313;28;20044;-86
2021/06/14 13:19:01;;;;;;;0.10;0.10;;;;;;;25.54;41.47;101291.16;5045491;28;20057;-86
2021/06/14 13:21:35;;;;;;;0.10;0.10;;;;;;;24.92;37.73;101249.25;5048937;28;20127;-86
2021/06/14 13:24:11;;;;;;;0.10;0.10;;;;;;;24.77;37.35;101264.84;5043829;28;20053;-85
2021/06/14 13:26:51;;;;;;;0.10;0.10;;;;;;;25.15;38.72;101281.97;5048958;28;20060;-86
2021/06/14 13:29:25;;;;;;;0.10;0.10;;;;;;;25.35;37.92;101275.25;5045244;28;20049;-87
2021/06/14 13:32:06;;;;;;;0.10;0.10;;;;;;;25.43;39.12;101270.63;5045779;28;20065;-85
2021/06/14 13:34:55;;;;;;;0.10;0.10;;;;;;;25.16;38.68;101278.81;5048330;28;20041;-84
2021/06/14 13:37:38;;;;;;;0.10;0.10;;;;;;;25.15;39.06;101274.44;5046649;28;20059;-86
2021/06/14 13:40:13;;;;;;;0.10;0.10;;;;;;;24.92;37.46;101236.16;5046582;28;20068;-86
2021/06/14 13:42:52;;;;;;;0.10;0.10;;;;;;;25.18;41.93;101248.63;5043583;28;20810;-88
2021/06/14 13:45:34;;;;;;;0.10;0.10;;;;;;;25.15;39.27;101254.09;5048351;28;20056;-87
2021/06/14 13:48:05;;;;;;;0.00;0.00;;;;;;;25.10;37.50;101258.00;5047614;28;20056;-89
2021/06/14 13:50:43;;;;;;;0.10;0.10;;;;;;;24.92;36.98;101255.63;5051632;28;21259;-88
2021/06/14 13:53:22;;;;;;;0.13;0.13;;;;;;;25.31;39.99;101282.69;5042340;28;20052;-88
2021/06/14 13:56:18;;;;;;;0.10;0.10;;;;;;;25.51;37.69;101268.78;5048787;28;20053;-89